Time;durP1;ratioP1;P1;durP2;ratioP2;P2;SDS_P1;SDS_P2;PMS_P1;PMS_P2;Temp;Humidity;BMP_temperature;BMP_pressure;BME280_temperature;BME280_humidity;BME280_pressure;Samples;Min_cycle;Max_cycle;Signal;HPM_P1;HPM_P2
2022/06/18 00:01:34;;;;;;;0.65;0.57;;;20.30;53.20;20.20;101129.00;;;;4959892;28;88173;-66
2022/06/18 00:04:10;;;;;;;0.50;0.50;;;20.10;53.30;20.20;101129.00;;;;4994054;28;86845;-67
2022/06/18 00:06:49;;;;;;;1.40;0.88;;;20.10;53.40;20.10;101127.00;;;;4993463;28;88128;-65
2022/06/18 00:09:16;;;;;;;0.70;0.68;;;20.00;53.70;20.00;101136.00;;;;4998178;28;88494;-65
2022/06/18 00:14:26;;;;;;;0.50;0.50;;;19.90;53.70;19.90;101122.00;;;;4973923;28;88141;-65
2022/06/18 00:16:52;;;;;;;0.63;0.63;;;19.80;53.80;19.90;101121.00;;;;4995768;28;114851;-65
2022/06/18 00:19:17;;;;;;;1.05;0.65;;;19.70;53.90;19.80;101118.00;;;;4983939;28;87715;-66
2022/06/18 00:21:43;;;;;;;0.60;0.43;;;19.70;54.00;19.80;101123.00;;;;4976324;28;93294;-65
2022/06/18 00:24:15;;;;;;;1.48;0.90;;;19.60;54.10;19.70;101119.00;;;;4990090;28;107681;-65
2022/06/18 00:26:41;;;;;;;2.33;0.80;;;19.60;54.30;19.70;101118.00;;;;4997026;27;89129;-66
2022/06/18 00:29:12;;;;;;;0.60;0.60;;;19.50;54.50;19.70;101117.00;;;;5004850;27;117804;-65
2022/06/18 00:31:38;;;;;;;0.75;0.40;;;19.50;54.50;19.60;101111.00;;;;4998673;27;87645;-65
2022/06/18 00:34:04;;;;;;;0.93;0.52;;;19.50;54.60;19.50;101109.00;;;;5008373;27;88895;-65
2022/06/18 00:36:30;;;;;;;0.68;0.45;;;19.40;54.60;19.50;101104.00;;;;5016055;27;89357;-65
2022/06/18 00:38:55;;;;;;;0.60;0.60;;;19.40;54.80;19.50;101093.00;;;;5006513;27;91247;-66
2022/06/18 00:41:25;;;;;;;1.77;0.88;;;19.40;55.00;19.40;101100.00;;;;4996021;27;99748;-65
2022/06/18 00:44:00;;;;;;;1.83;0.95;;;19.30;55.10;19.40;101091.00;;;;5006525;27;87903;-65
2022/06/18 00:46:35;;;;;;;1.23;0.85;;;19.30;55.20;19.40;101104.00;;;;5014615;27;87929;-65
2022/06/18 00:49:31;;;;;;;0.70;0.70;;;19.30;55.50;19.30;101092.00;;;;5016008;27;109536;-66
2022/06/18 00:52:29;;;;;;;1.60;0.75;;;19.20;55.70;19.30;101095.00;;;;5015027;27;87752;-66
2022/06/18 00:55:05;;;;;;;0.43;0.43;;;19.20;55.90;19.30;101101.00;;;;5033715;27;87317;-66
2022/06/18 00:58:05;;;;;;;0.40;0.40;;;19.20;56.30;19.20;101103.00;;;;4997544;27;111170;-66
2022/06/18 01:00:40;;;;;;;0.73;0.68;;;19.10;56.30;19.30;101093.00;;;;5002980;27;106211;-66
2022/06/18 01:03:27;;;;;;;1.02;0.93;;;19.10;56.40;19.30;101094.00;;;;5013127;27;88696;-66
2022/06/18 01:05:56;;;;;;;0.50;0.50;;;19.10;56.50;19.30;101081.00;;;;5015422;27;87867;-66
2022/06/18 01:08:26;;;;;;;0.82;0.68;;;19.10;56.70;19.30;101092.00;;;;5013464;27;87819;-65
2022/06/18 01:11:01;;;;;;;0.57;0.50;;;19.20;56.70;19.30;101085.00;;;;5014080;27;88001;-66
2022/06/18 01:13:34;;;;;;;0.77;0.77;;;19.20;56.90;19.30;101089.00;;;;5003934;27;87432;-65
2022/06/18 01:16:01;;;;;;;0.85;0.57;;;19.20;56.90;19.30;101081.00;;;;4999952;27;88157;-65
2022/06/18 01:18:43;;;;;;;0.73;0.73;;;19.20;56.90;19.30;101073.00;;;;5008254;27;115912;-65
2022/06/18 01:21:49;;;;;;;1.45;0.60;;;19.20;57.00;19.30;101080.00;;;;5020616;27;87431;-65
2022/06/18 01:24:41;;;;;;;0.30;0.30;;;19.10;56.90;19.20;101087.00;;;;5015897;27;102893;-65
2022/06/18 01:27:09;;;;;;;0.50;0.50;;;19.10;57.20;19.20;101080.00;;;;5018129;27;87651;-66
2022/06/18 01:29:36;;;;;;;0.60;0.57;;;19.10;57.30;19.20;101075.00;;;;5013802;27;90678;-65
2022/06/18 01:32:03;;;;;;;1.50;0.93;;;19.00;57.30;19.10;101068.00;;;;4998711;27;89304;-65
2022/06/18 01:34:30;;;;;;;0.95;0.80;;;19.00;57.60;19.10;101073.00;;;;5014580;27;91989;-65
2022/06/18 01:36:59;;;;;;;0.85;0.65;;;19.00;57.60;19.00;101072.00;;;;5019697;27;108947;-66
2022/06/18 01:39:47;;;;;;;0.40;0.40;;;18.90;57.60;19.00;101070.00;;;;5015894;27;87713;-65
2022/06/18 01:42:25;;;;;;;0.73;0.73;;;18.90;57.60;18.90;101069.00;;;;4982984;28;90309;-65
2022/06/18 01:45:10;;;;;;;0.63;0.50;;;18.80;57.80;18.90;101061.00;;;;5033299;27;87979;-65
2022/06/18 01:47:44;;;;;;;1.02;0.82;;;18.80;57.90;18.80;101052.00;;;;5019789;27;87150;-65
2022/06/18 01:50:20;;;;;;;0.93;0.93;;;18.70;57.90;18.80;101055.00;;;;4996581;28;88881;-65
2022/06/18 01:52:51;;;;;;;0.70;0.70;;;18.70;58.10;18.70;101046.00;;;;4998153;27;109905;-65
2022/06/18 01:55:27;;;;;;;1.30;0.60;;;18.60;58.40;18.70;101045.00;;;;4998241;27;102025;-65
2022/06/18 01:58:02;;;;;;;1.38;0.65;;;18.60;58.40;18.60;101037.00;;;;4993287;27;87939;-65
2022/06/18 02:00:31;;;;;;;0.60;0.60;;;18.50;58.70;18.60;101043.00;;;;4997749;28;89036;-65
2022/06/18 02:02:59;;;;;;;0.75;0.65;;;18.50;58.80;18.50;101034.00;;;;5000829;27;116964;-65
2022/06/18 02:05:25;;;;;;;0.95;0.82;;;18.40;58.80;18.50;101036.00;;;;5001364;27;100947;-65
2022/06/18 02:07:52;;;;;;;0.52;0.52;;;18.40;58.90;18.40;101025.00;;;;5000910;27;88253;-65
2022/06/18 02:10:51;;;;;;;0.32;0.30;;;18.30;59.00;18.30;101027.00;;;;4985202;28;88137;-65
2022/06/18 02:13:21;;;;;;;0.60;0.60;;;18.30;59.20;18.30;101035.00;;;;4990132;27;106966;-65
2022/06/18 02:15:47;;;;;;;1.63;0.68;;;18.20;59.30;18.20;101023.00;;;;4985145;28;87784;-65
2022/06/18 02:18:15;;;;;;;0.75;0.75;;;18.10;59.40;18.20;101021.00;;;;4997868;27;105075;-65
2022/06/18 02:20:54;;;;;;;0.50;0.50;;;18.10;59.60;18.10;101018.00;;;;4999042;28;117799;-66
2022/06/18 02:23:24;;;;;;;0.95;0.85;;;18.10;59.80;18.10;101013.00;;;;5002115;27;88550;-65
2022/06/18 02:25:51;;;;;;;0.75;0.70;;;18.00;60.00;18.00;101011.00;;;;5020280;27;111701;-65
2022/06/18 02:28:39;;;;;;;0.60;0.60;;;17.90;60.30;17.90;101010.00;;;;5018248;27;87927;-65
2022/06/18 02:31:07;;;;;;;0.40;0.40;;;17.90;60.80;17.80;100998.00;;;;5020202;27;87665;-65
2022/06/18 02:33:56;;;;;;;0.98;0.80;;;17.80;61.00;17.80;100997.00;;;;5011516;27;87758;-65
2022/06/18 02:36:29;;;;;;;0.68;0.63;;;17.70;61.20;17.70;100998.00;;;;4995136;28;87928;-66
2022/06/18 02:39:09;;;;;;;1.40;0.70;;;17.60;61.30;17.70;101001.00;;;;5011029;27;86918;-65
2022/06/18 02:41:38;;;;;;;0.73;0.73;;;17.60;61.70;17.60;101000.00;;;;5024586;27;87994;-65
2022/06/18 02:44:04;;;;;;;1.45;0.52;;;17.60;61.90;17.60;101002.00;;;;5008636;27;88164;-65
2022/06/18 02:46:30;;;;;;;1.15;0.50;;;17.50;62.20;17.50;101004.00;;;;5003046;27;109385;-65
2022/06/18 02:49:00;;;;;;;1.15;0.88;;;17.40;62.40;17.50;100998.00;;;;5009761;27;109084;-66
2022/06/18 02:51:27;;;;;;;0.73;0.60;;;17.40;62.60;17.50;100997.00;;;;5020570;27;88051;-66
2022/06/18 02:53:53;;;;;;;1.52;0.80;;;17.30;63.00;17.40;101002.00;;;;5010519;27;88585;-66
2022/06/18 02:56:22;;;;;;;0.93;0.68;;;17.30;63.30;17.30;100997.00;;;;5004867;27;110621;-66
2022/06/18 02:58:49;;;;;;;2.42;0.90;;;17.30;63.60;17.30;100985.00;;;;5006205;27;87877;-66
2022/06/18 03:01:19;;;;;;;1.63;0.65;;;17.20;63.90;17.30;100994.00;;;;5018921;27;88108;-66
2022/06/18 03:03:51;;;;;;;0.65;0.65;;;17.20;64.10;17.30;100985.00;;;;5012383;27;87113;-66
2022/06/18 03:06:21;;;;;;;1.42;0.82;;;17.20;64.40;17.20;100986.00;;;;5019477;27;96042;-66
2022/06/18 03:08:49;;;;;;;5.20;0.88;;;17.10;64.60;17.20;100995.00;;;;5012449;27;87886;-66
2022/06/18 03:14:02;;;;;;;0.28;0.28;;;17.10;65.10;17.20;100992.00;;;;5017530;27;88484;-66
2022/06/18 03:16:28;;;;;;;0.60;0.43;;;17.10;65.40;17.20;100988.00;;;;5021131;27;87729;-66
2022/06/18 03:18:57;;;;;;;1.05;0.80;;;17.10;65.70;17.20;100986.00;;;;5017648;27;87787;-66
2022/06/18 03:21:38;;;;;;;0.90;0.82;;;17.10;66.00;17.20;100977.00;;;;5016403;27;88919;-66
2022/06/18 03:24:05;;;;;;;1.17;0.82;;;17.10;66.50;17.20;100985.00;;;;5006250;27;102628;-66
2022/06/18 03:26:32;;;;;;;0.98;0.88;;;17.10;66.80;17.20;100985.00;;;;4998723;27;95867;-67
2022/06/18 03:28:58;;;;;;;0.68;0.50;;;17.10;66.80;17.20;100978.00;;;;5000311;27;87036;-66
2022/06/18 03:31:24;;;;;;;0.85;0.63;;;17.10;67.00;17.20;100976.00;;;;5000130;27;87798;-66
2022/06/18 03:33:50;;;;;;;1.48;0.45;;;17.10;67.10;17.30;100972.00;;;;4999835;27;107491;-66
2022/06/18 03:36:19;;;;;;;0.75;0.60;;;17.10;67.50;17.30;100972.00;;;;4999394;28;88912;-66
2022/06/18 03:38:45;;;;;;;0.93;0.70;;;17.10;67.90;17.30;100964.00;;;;4997065;27;101055;-66
2022/06/18 03:41:12;;;;;;;0.43;0.35;;;17.20;68.00;17.40;100962.00;;;;4998338;28;88162;-66
2022/06/18 03:43:38;;;;;;;0.70;0.65;;;17.20;68.20;17.40;100959.00;;;;5001162;27;87995;-67
2022/06/18 03:46:08;;;;;;;0.47;0.45;;;17.20;68.20;17.50;100961.00;;;;4997961;27;108392;-66
2022/06/18 03:48:52;;;;;;;0.55;0.55;;;17.30;68.20;17.50;100963.00;;;;5003679;27;87779;-66
2022/06/18 03:51:19;;;;;;;0.95;0.60;;;17.40;68.30;17.60;100960.00;;;;5021435;27;87812;-66
2022/06/18 03:53:45;;;;;;;0.45;0.45;;;17.40;68.20;17.70;100964.00;;;;5012155;27;87768;-66
2022/06/18 03:56:14;;;;;;;1.05;0.90;;;17.50;68.10;17.80;100955.00;;;;4998617;27;87888;-66
2022/06/18 03:58:42;;;;;;;0.35;0.35;;;17.60;68.20;17.80;100953.00;;;;5004191;27;103679;-66
2022/06/18 04:01:10;;;;;;;0.60;0.60;;;17.60;68.10;17.90;100952.00;;;;5017435;27;91194;-66
2022/06/18 04:03:35;;;;;;;0.68;0.57;;;17.70;68.00;18.00;100944.00;;;;5014601;27;110141;-66
2022/06/18 04:06:01;;;;;;;1.35;0.63;;;17.80;68.00;18.10;100937.00;;;;5015308;27;110366;-66
2022/06/18 04:08:27;;;;;;;2.95;0.93;;;17.90;67.90;18.20;100942.00;;;;5013642;27;108564;-66
2022/06/18 04:10:52;;;;;;;0.28;0.28;;;18.00;68.00;18.30;100938.00;;;;4999791;27;107776;-66
2022/06/18 04:13:18;;;;;;;0.50;0.47;;;18.10;67.80;18.40;100930.00;;;;5010587;27;117457;-66
2022/06/18 04:15:45;;;;;;;1.25;0.60;;;18.20;67.50;18.50;100924.00;;;;4998899;27;89374;-66
2022/06/18 04:18:16;;;;;;;0.40;0.30;;;18.30;67.40;18.70;100924.00;;;;5004424;27;87192;-66
2022/06/18 04:20:43;;;;;;;1.35;0.40;;;18.40;67.10;18.80;100929.00;;;;5017563;27;88370;-67
2022/06/18 04:23:10;;;;;;;0.30;0.30;;;18.50;66.90;18.90;100927.00;;;;5016522;27;88145;-67
2022/06/18 04:25:36;;;;;;;1.13;0.68;;;18.60;66.60;18.90;100921.00;;;;5027715;27;88469;-67
2022/06/18 04:28:02;;;;;;;0.80;0.50;;;18.70;66.30;19.10;100921.00;;;;5022655;27;107790;-66
2022/06/18 04:30:31;;;;;;;0.75;0.70;;;18.80;66.10;19.20;100925.00;;;;5016059;27;88222;-67
2022/06/18 04:32:59;;;;;;;0.40;0.40;;;19.00;65.90;19.30;100925.00;;;;5018927;27;88415;-67
2022/06/18 04:35:25;;;;;;;0.40;0.40;;;19.10;65.50;19.30;100929.00;;;;5021089;27;88072;-66
2022/06/18 04:37:50;;;;;;;3.60;0.57;;;19.10;65.20;19.40;100927.00;;;;5021336;27;87893;-67
2022/06/18 04:40:31;;;;;;;0.50;0.50;;;19.20;65.00;19.50;100922.00;;;;5004142;27;88588;-67
2022/06/18 04:43:02;;;;;;;0.52;0.35;;;19.30;64.80;19.60;100926.00;;;;5000382;27;87913;-67
2022/06/18 04:45:29;;;;;;;1.00;0.90;;;19.40;64.40;19.70;100926.00;;;;5017862;27;101315;-67
2022/06/18 04:47:56;;;;;;;1.20;0.60;;;19.50;64.00;19.80;100925.00;;;;5019832;27;87979;-67
2022/06/18 04:50:37;;;;;;;0.63;0.52;;;19.60;63.80;19.90;100925.00;;;;5016227;27;103422;-66
2022/06/18 04:53:05;;;;;;;1.20;0.90;;;19.70;63.50;20.10;100929.00;;;;5014043;27;88602;-67
2022/06/18 04:55:31;;;;;;;0.65;0.60;;;19.80;63.20;20.20;100922.00;;;;4995338;27;103281;-68
2022/06/18 04:58:10;;;;;;;1.98;0.40;;;20.00;63.00;20.30;100924.00;;;;4999030;27;100268;-67
2022/06/18 05:00:37;;;;;;;2.65;0.85;;;20.10;62.40;20.50;100918.00;;;;5001394;27;87906;-67
2022/06/18 05:03:03;;;;;;;0.50;0.50;;;20.30;62.10;20.60;100919.00;;;;4997993;27;87786;-68
2022/06/18 05:05:29;;;;;;;0.43;0.40;;;20.40;61.70;20.80;100919.00;;;;4997970;27;87853;-67
2022/06/18 05:07:55;;;;;;;0.68;0.68;;;20.50;61.20;20.90;100908.00;;;;4997975;27;87025;-68
2022/06/18 05:10:21;;;;;;;0.70;0.70;;;20.70;60.90;21.10;100904.00;;;;4999814;27;87668;-67
2022/06/18 05:12:47;;;;;;;0.63;0.32;;;20.80;60.20;21.20;100907.00;;;;4998161;27;87634;-66
2022/06/18 05:15:13;;;;;;;1.65;0.50;;;21.00;59.70;21.40;100910.00;;;;4995903;27;88713;-66
2022/06/18 05:17:43;;;;;;;1.67;0.77;;;21.10;59.40;21.50;100908.00;;;;5014704;27;87915;-66
2022/06/18 05:20:18;;;;;;;0.30;0.30;;;21.20;59.20;21.70;100911.00;;;;5016496;27;89805;-66
2022/06/18 05:22:44;;;;;;;1.00;0.90;;;21.40;58.60;21.90;100907.00;;;;5015379;27;87928;-65
2022/06/18 05:25:12;;;;;;;0.38;0.38;;;21.60;58.30;22.10;100900.00;;;;4998087;27;87969;-67
2022/06/18 05:27:38;;;;;;;8.02;0.82;;;21.80;57.40;22.30;100897.00;;;;4998348;27;87863;-65
2022/06/18 05:30:07;;;;;;;0.60;0.50;;;22.00;56.90;22.50;100897.00;;;;5008364;27;88118;-65
2022/06/18 05:32:33;;;;;;;0.60;0.50;;;22.20;56.40;22.70;100891.00;;;;5002386;27;88940;-66
2022/06/18 05:34:58;;;;;;;3.40;0.77;;;22.40;55.90;22.90;100891.00;;;;4997639;27;99340;-66
2022/06/18 05:37:27;;;;;;;0.40;0.40;;;22.60;55.00;23.10;100899.00;;;;4994376;27;110178;-64
2022/06/18 05:39:53;;;;;;;1.08;0.32;;;22.80;54.10;23.30;100892.00;;;;4997399;27;96025;-63
2022/06/18 05:42:18;;;;;;;0.32;0.28;;;22.90;53.90;23.50;100889.00;;;;4996950;27;118131;-65
2022/06/18 05:44:44;;;;;;;1.33;0.65;;;23.20;53.30;23.70;100889.00;;;;5012176;27;110316;-64
2022/06/18 05:47:22;;;;;;;0.30;0.30;;;23.40;52.60;23.90;100894.00;;;;4998017;27;108921;-65
2022/06/18 05:49:49;;;;;;;0.60;0.40;;;23.50;51.80;24.10;100894.00;;;;4994689;27;88880;-66
2022/06/18 05:52:15;;;;;;;0.82;0.73;;;23.80;51.30;24.30;100891.00;;;;5009649;27;87792;-66
2022/06/18 05:54:40;;;;;;;0.35;0.35;;;24.00;50.30;24.50;100889.00;;;;4998542;27;109435;-65
2022/06/18 05:57:06;;;;;;;0.50;0.40;;;24.20;49.60;24.70;100894.00;;;;4994978;27;87423;-66
2022/06/18 05:59:33;;;;;;;0.40;0.40;;;24.40;49.40;24.90;100889.00;;;;4993892;27;88366;-65
2022/06/18 06:01:59;;;;;;;0.43;0.32;;;24.60;49.00;25.10;100890.00;;;;4993958;27;87931;-66
2022/06/18 06:04:28;;;;;;;1.38;0.50;;;24.80;48.10;25.30;100890.00;;;;5003695;27;95761;-66
2022/06/18 06:06:54;;;;;;;1.05;0.70;;;24.90;47.30;25.40;100889.00;;;;4995232;27;90211;-66
2022/06/18 06:12:11;;;;;;;0.35;0.35;;;25.20;45.60;25.70;100874.00;;;;5001364;27;87963;-69
2022/06/18 06:14:39;;;;;;;0.65;0.30;;;25.40;45.10;25.80;100884.00;;;;5007542;27;87827;-67
2022/06/18 06:17:13;;;;;;;0.55;0.47;;;25.50;44.40;25.90;100874.00;;;;5012653;27;93907;-67
2022/06/18 06:19:39;;;;;;;0.20;0.20;;;25.60;44.40;26.10;100875.00;;;;5023874;27;89034;-68
2022/06/18 06:22:04;;;;;;;0.60;0.50;;;25.80;43.90;26.20;100878.00;;;;5018838;27;108359;-71
2022/06/18 06:24:30;;;;;;;0.40;0.38;;;25.90;43.40;26.30;100880.00;;;;5007631;27;96891;-69
2022/06/18 06:26:56;;;;;;;0.40;0.40;;;26.00;43.30;26.50;100880.00;;;;5003338;27;110299;-70
2022/06/18 06:29:43;;;;;;;0.20;0.20;;;26.10;43.40;26.70;100867.00;;;;5013192;27;89946;-70
2022/06/18 06:32:09;;;;;;;0.30;0.20;;;26.30;43.10;26.80;100870.00;;;;4992275;27;117955;-68
2022/06/18 06:34:34;;;;;;;0.57;0.30;;;26.50;42.40;27.00;100862.00;;;;5002754;27;95314;-70
2022/06/18 06:37:00;;;;;;;0.30;0.30;;;26.60;41.70;27.00;100863.00;;;;5012531;27;107827;-70
2022/06/18 06:39:26;;;;;;;0.40;0.35;;;26.70;41.70;27.10;100857.00;;;;5012382;27;106468;-70
2022/06/18 06:41:51;;;;;;;0.55;0.30;;;26.80;41.30;27.20;100860.00;;;;5011896;27;109239;-70
2022/06/18 06:44:17;;;;;;;0.30;0.30;;;26.90;41.00;27.20;100858.00;;;;5011055;27;87937;-69
2022/06/18 06:46:43;;;;;;;0.40;0.40;;;27.00;41.30;27.40;100859.00;;;;5001118;27;86995;-70
2022/06/18 06:49:08;;;;;;;0.75;0.50;;;27.10;40.90;27.40;100858.00;;;;5004327;27;117547;-70
2022/06/18 06:51:38;;;;;;;0.70;0.45;;;27.20;40.80;27.60;100849.00;;;;5003475;27;117913;-70
2022/06/18 06:54:04;;;;;;;0.45;0.40;;;27.30;40.70;27.70;100849.00;;;;5003940;27;88988;-68
2022/06/18 06:59:15;;;;;;;0.40;0.40;;;27.50;40.10;28.00;100849.00;;;;4997456;27;87646;-69
2022/06/18 07:01:40;;;;;;;0.88;0.60;;;27.60;40.30;28.10;100844.00;;;;4991653;27;94761;-68
2022/06/18 07:04:10;;;;;;;0.47;0.47;;;27.70;39.90;28.20;100844.00;;;;5003973;27;88178;-70
2022/06/18 07:06:36;;;;;;;2.10;0.60;;;27.80;39.80;28.30;100845.00;;;;5013325;27;87725;-69
2022/06/18 07:09:05;;;;;;;0.38;0.28;;;27.90;39.60;28.40;100837.00;;;;4992011;27;117541;-69
2022/06/18 07:11:33;;;;;;;0.30;0.20;;;28.00;39.50;28.50;100832.00;;;;5007134;27;87161;-70
2022/06/18 07:13:59;;;;;;;0.82;0.28;;;28.10;39.20;28.50;100834.00;;;;5007029;27;87676;-69
2022/06/18 07:16:25;;;;;;;0.20;0.20;;;28.20;39.30;28.70;100831.00;;;;4993348;27;88804;-69
2022/06/18 07:18:53;;;;;;;0.30;0.30;;;28.30;39.50;28.80;100827.00;;;;4992585;27;89348;-71
2022/06/18 07:21:21;;;;;;;0.40;0.28;;;28.50;39.00;28.90;100815.00;;;;5011091;27;88931;-70
2022/06/18 07:23:48;;;;;;;2.22;0.40;;;28.60;38.70;29.00;100819.00;;;;5006416;27;87940;-70
2022/06/18 07:26:18;;;;;;;0.10;0.10;;;28.70;38.30;29.10;100817.00;;;;4992205;27;101426;-70
2022/06/18 07:28:44;;;;;;;0.25;0.25;;;28.80;38.30;29.10;100818.00;;;;4991847;27;87960;-70
2022/06/18 07:31:29;;;;;;;0.40;0.40;;;28.90;38.30;29.30;100821.00;;;;4992330;27;88975;-69
2022/06/18 07:33:57;;;;;;;0.30;0.30;;;29.00;38.60;29.60;100815.00;;;;5004425;27;87828;-69
2022/06/18 07:36:23;;;;;;;0.68;0.50;;;29.20;37.40;29.70;100813.00;;;;5013155;27;87009;-69
2022/06/18 07:38:48;;;;;;;0.43;0.40;;;29.30;37.40;29.80;100796.00;;;;5002376;27;88031;-69
2022/06/18 07:41:18;;;;;;;0.40;0.40;;;29.40;36.80;29.80;100808.00;;;;4993147;27;88607;-69
2022/06/18 07:43:49;;;;;;;3.63;0.50;;;29.50;36.90;29.90;100797.00;;;;5003890;27;89079;-68
2022/06/18 07:46:14;;;;;;;1.55;0.50;;;29.60;36.80;30.00;100796.00;;;;4993122;27;87846;-69
2022/06/18 07:48:41;;;;;;;0.75;0.47;;;29.70;37.20;30.20;100801.00;;;;4990820;27;117996;-69
2022/06/18 07:51:07;;;;;;;0.20;0.20;;;29.90;37.10;30.40;100798.00;;;;4995275;27;87763;-69
2022/06/18 07:53:34;;;;;;;0.93;0.50;;;30.10;36.80;30.60;100785.00;;;;4992887;27;102721;-70
2022/06/18 07:56:00;;;;;;;0.47;0.43;;;30.30;36.30;30.80;100787.00;;;;4991778;27;100455;-69
2022/06/18 07:58:29;;;;;;;0.30;0.30;;;30.50;36.00;31.00;100795.00;;;;4991983;27;98695;-71
2022/06/18 08:00:57;;;;;;;0.88;0.40;;;30.60;36.00;31.10;100789.00;;;;5001823;27;116077;-69
2022/06/18 08:03:35;;;;;;;0.82;0.80;;;30.80;35.30;31.10;100793.00;;;;4996110;27;87946;-68
2022/06/18 08:06:02;;;;;;;0.40;0.30;;;30.80;34.60;31.00;100790.00;;;;5012474;27;87482;-69
2022/06/18 08:08:28;;;;;;;1.25;0.85;;;30.80;35.00;31.00;100787.00;;;;5004636;27;90252;-70
2022/06/18 08:10:54;;;;;;;0.63;0.52;;;30.70;35.20;31.10;100775.00;;;;4991772;27;118320;-68
2022/06/18 08:13:21;;;;;;;0.30;0.30;;;30.80;35.20;31.20;100784.00;;;;5001542;27;108841;-68
2022/06/18 08:15:48;;;;;;;0.40;0.40;;;30.90;35.40;31.30;100781.00;;;;4998594;27;87676;-69
2022/06/18 08:18:14;;;;;;;2.80;0.63;;;31.00;35.40;31.30;100781.00;;;;4956013;28;109533;-69
2022/06/18 08:20:41;;;;;;;0.35;0.35;;;31.10;35.10;31.40;100780.00;;;;4980834;27;87953;-71
2022/06/18 08:23:08;;;;;;;0.50;0.40;;;31.10;35.40;31.60;100776.00;;;;4981148;27;87956;-69
2022/06/18 08:25:37;;;;;;;2.17;0.52;;;31.30;35.00;31.60;100772.00;;;;5015637;27;108395;-69
2022/06/18 08:28:05;;;;;;;0.38;0.38;;;31.30;35.10;31.60;100775.00;;;;4992746;27;88362;-69
2022/06/18 08:30:32;;;;;;;0.35;0.35;;;31.40;35.00;31.70;100781.00;;;;4995915;27;87808;-68
2022/06/18 08:32:57;;;;;;;0.40;0.30;;;31.40;34.80;31.80;100773.00;;;;4976703;27;95155;-71
2022/06/18 08:35:24;;;;;;;0.50;0.50;;;31.50;34.90;31.90;100768.00;;;;5015372;27;88001;-69
2022/06/18 08:37:50;;;;;;;0.30;0.30;;;31.60;34.40;31.90;100759.00;;;;4992747;27;89343;-71
2022/06/18 08:40:51;;;;;;;3.58;0.75;;;31.60;34.70;32.00;100751.00;;;;4966838;27;94693;-68
2022/06/18 08:43:58;;;;;;;0.52;0.52;;;31.70;34.80;32.10;100761.00;;;;4993732;27;99699;-68
2022/06/18 08:47:01;;;;;;;0.90;0.45;;;31.80;34.40;32.30;100750.00;;;;4997159;27;88030;-67
2022/06/18 08:49:37;;;;;;;0.47;0.30;;;32.00;34.40;32.40;100754.00;;;;4975812;28;108637;-69
2022/06/18 08:52:37;;;;;;;0.30;0.30;;;32.10;34.20;32.50;100749.00;;;;4994900;27;108453;-69
2022/06/18 08:55:35;;;;;;;0.73;0.65;;;32.20;33.70;32.40;100749.00;;;;5007323;27;88062;-70
2022/06/18 08:58:31;;;;;;;0.43;0.35;;;32.20;34.10;32.60;100746.00;;;;4995317;27;87746;-70
2022/06/18 09:01:20;;;;;;;0.45;0.35;;;32.30;34.20;32.90;100738.00;;;;5008925;27;88647;-69
2022/06/18 09:04:20;;;;;;;0.80;0.63;;;32.40;34.10;33.10;100750.00;;;;4995641;27;109683;-69
2022/06/18 09:07:30;;;;;;;0.73;0.40;;;32.70;34.20;33.30;100736.00;;;;4993003;27;87853;-69
2022/06/18 09:10:45;;;;;;;0.40;0.38;;;32.90;34.00;33.50;100757.00;;;;5012937;27;88220;-69
2022/06/18 09:13:25;;;;;;;1.25;0.75;;;33.10;33.40;33.40;100743.00;;;;4991999;27;87816;-69
2022/06/18 09:15:59;;;;;;;0.88;0.60;;;33.10;33.30;33.50;100750.00;;;;5002407;27;87965;-71
2022/06/18 09:18:53;;;;;;;0.90;0.50;;;33.10;33.50;33.60;100741.00;;;;5007428;27;103764;-69
2022/06/18 09:21:28;;;;;;;0.50;0.38;;;33.20;33.50;33.70;100735.00;;;;4995961;27;87273;-69
2022/06/18 09:24:08;;;;;;;0.25;0.25;;;33.30;33.10;33.60;100730.00;;;;4999335;27;97821;-70
2022/06/18 09:26:43;;;;;;;3.63;0.55;;;33.30;33.00;33.60;100730.00;;;;4994866;27;88251;-70
2022/06/18 09:29:22;;;;;;;0.40;0.40;;;33.20;32.90;33.60;100729.00;;;;4993757;27;88595;-70
2022/06/18 09:32:05;;;;;;;0.60;0.60;;;33.30;33.30;33.80;100724.00;;;;5013306;27;87996;-70
2022/06/18 09:34:44;;;;;;;0.98;0.40;;;33.40;33.40;33.90;100715.00;;;;4998964;27;106522;-71
2022/06/18 09:37:25;;;;;;;0.57;0.50;;;33.50;33.20;34.00;100716.00;;;;5001378;27;107061;-70
2022/06/18 09:39:56;;;;;;;1.42;0.73;;;33.60;33.10;34.10;100709.00;;;;5007412;27;91322;-70
2022/06/18 09:42:49;;;;;;;2.78;0.73;;;33.70;33.30;34.40;100711.00;;;;4992785;27;88114;-70
2022/06/18 09:45:49;;;;;;;0.60;0.60;;;33.90;33.20;34.70;100708.00;;;;4999481;27;87818;-69
2022/06/18 09:48:15;;;;;;;0.30;0.30;;;34.20;32.70;34.70;100705.00;;;;5007314;27;89259;-69
2022/06/18 09:51:04;;;;;;;0.70;0.70;;;34.30;32.60;34.70;100713.00;;;;4994237;27;106041;-70
2022/06/18 09:53:34;;;;;;;0.30;0.30;;;34.30;32.50;34.80;100703.00;;;;4991890;28;100900;-71
2022/06/18 09:56:24;;;;;;;0.77;0.57;;;34.30;32.40;34.90;100701.00;;;;4974816;27;107299;-69
2022/06/18 09:59:07;;;;;;;0.38;0.38;;;34.50;32.20;34.90;100705.00;;;;5011446;27;87935;-70
2022/06/18 10:01:45;;;;;;;0.50;0.47;;;34.50;32.20;34.90;100708.00;;;;5011881;27;100287;-69
2022/06/18 10:07:03;;;;;;;0.60;0.38;;;34.50;32.00;34.90;100698.00;;;;5003506;27;87799;-70
2022/06/18 10:09:43;;;;;;;1.20;0.57;;;34.50;31.70;34.70;100686.00;;;;5003425;27;87963;-70
2022/06/18 10:12:38;;;;;;;1.55;0.40;;;34.30;31.70;34.70;100677.00;;;;5002308;27;87858;-70
2022/06/18 10:15:09;;;;;;;1.85;0.25;;;34.30;31.90;34.80;100690.00;;;;5006491;27;100498;-71
2022/06/18 10:18:29;;;;;;;1.20;0.90;;;34.30;31.80;35.00;100705.00;;;;5004977;27;110868;-71
2022/06/18 10:21:25;;;;;;;0.88;0.57;;;34.30;31.50;35.00;100691.00;;;;4943092;28;88122;-69
2022/06/18 10:24:04;;;;;;;1.23;0.65;;;34.50;31.50;35.20;100687.00;;;;4977855;28;104453;-69
2022/06/18 10:27:02;;;;;;;0.35;0.35;;;34.60;31.70;35.40;100677.00;;;;4995150;27;100484;-72
2022/06/18 10:29:46;;;;;;;0.88;0.57;;;34.80;31.30;35.60;100684.00;;;;5008030;27;88148;-70
2022/06/18 10:32:59;;;;;;;0.77;0.63;;;35.00;31.00;35.60;100691.00;;;;5011660;27;108354;-72
2022/06/18 10:35:32;;;;;;;0.40;0.40;;;35.00;30.80;35.60;100687.00;;;;4996030;27;87832;-70
2022/06/18 10:38:19;;;;;;;1.77;0.63;;;35.00;30.90;35.80;100680.00;;;;5014384;27;87718;-69
2022/06/18 10:41:11;;;;;;;0.70;0.50;;;35.10;30.90;35.90;100677.00;;;;5012325;27;91675;-70
2022/06/18 10:44:14;;;;;;;0.63;0.63;;;35.30;30.70;36.20;100663.00;;;;5000369;27;89188;-70
2022/06/18 10:46:39;;;;;;;0.57;0.57;;;35.50;30.50;36.40;100667.00;;;;4984792;28;87711;-70
2022/06/18 10:49:06;;;;;;;2.35;0.75;;;35.70;30.40;36.50;100668.00;;;;4996467;27;87999;-70
2022/06/18 10:52:02;;;;;;;0.50;0.50;;;35.80;29.80;36.70;100661.00;;;;4998938;27;88669;-70
2022/06/18 10:54:37;;;;;;;1.17;0.65;;;36.00;29.80;36.90;100659.00;;;;5005680;27;104831;-69
2022/06/18 10:57:04;;;;;;;1.95;0.60;;;36.20;29.90;37.10;100650.00;;;;5005979;27;87799;-71
2022/06/18 10:59:38;;;;;;;1.50;0.73;;;36.30;29.70;37.10;100665.00;;;;4993394;27;97765;-69
2022/06/18 11:02:12;;;;;;;1.23;0.70;;;36.50;29.30;37.00;100670.00;;;;4997155;27;88891;-70
2022/06/18 11:04:39;;;;;;;1.20;0.65;;;36.50;29.30;37.00;100663.00;;;;4992936;27;88396;-69
2022/06/18 11:07:09;;;;;;;0.63;0.60;;;36.40;29.40;37.10;100662.00;;;;4999893;27;87934;-70
2022/06/18 11:09:44;;;;;;;1.80;0.52;;;36.50;29.50;37.20;100651.00;;;;4992621;27;87133;-70
2022/06/18 11:12:36;;;;;;;0.82;0.60;;;36.60;29.30;37.30;100649.00;;;;4992397;27;117198;-70
2022/06/18 11:15:07;;;;;;;0.68;0.68;;;36.70;29.20;37.20;100653.00;;;;5003716;27;87889;-69
2022/06/18 11:17:36;;;;;;;0.52;0.52;;;36.70;29.10;37.10;100653.00;;;;5006648;27;89053;-69
2022/06/18 11:20:27;;;;;;;3.10;0.82;;;36.60;29.30;37.10;100650.00;;;;4993441;27;91710;-70
2022/06/18 11:23:03;;;;;;;1.27;0.82;;;36.60;29.10;36.90;100654.00;;;;5006052;27;107676;-70
2022/06/18 11:25:45;;;;;;;2.90;0.77;;;36.40;29.30;36.90;100654.00;;;;4988487;27;89062;-71